createdAt,value
2023-04-30T00:00:38.307Z,9.78
2023-04-30T00:03:04.996Z,9.78
2023-04-30T00:05:32.030Z,9.75
2023-04-30T00:07:58.500Z,9.75
2023-04-30T00:10:24.928Z,9.67
2023-04-30T00:12:51.343Z,9.57
2023-04-30T00:15:17.858Z,9.40
2023-04-30T00:17:44.280Z,9.43
2023-04-30T00:20:11.607Z,9.49
2023-04-30T00:22:38.975Z,9.47
2023-04-30T00:25:05.563Z,9.36
2023-04-30T00:27:32.014Z,9.27
2023-04-30T00:29:58.759Z,9.38
2023-04-30T00:32:25.443Z,9.57
2023-04-30T00:34:52.162Z,9.51
2023-04-30T00:37:19.418Z,9.51
2023-04-30T00:39:45.958Z,9.49
2023-04-30T00:42:12.480Z,9.54
2023-04-30T00:44:38.962Z,9.48
2023-04-30T00:47:05.645Z,9.50
2023-04-30T00:49:32.127Z,9.49
2023-04-30T00:51:58.620Z,9.41
2023-04-30T00:54:25.385Z,9.41
2023-04-30T00:56:52.195Z,9.32
2023-04-30T00:59:18.845Z,9.44
2023-04-30T01:01:46.008Z,9.40
2023-04-30T01:04:12.965Z,9.38
2023-04-30T01:06:39.790Z,9.50
2023-04-30T01:09:06.890Z,9.56
2023-04-30T01:11:51.385Z,9.59
2023-04-30T01:14:27.644Z,9.39
2023-04-30T01:17:08.593Z,9.35
2023-04-30T01:19:43.034Z,9.31
2023-04-30T01:22:42.507Z,9.37
2023-04-30T01:25:27.757Z,9.57
2023-04-30T01:28:09.578Z,9.46
2023-04-30T01:30:37.089Z,9.43
2023-04-30T01:33:03.888Z,9.23
2023-04-30T01:35:50.170Z,9.21
2023-04-30T01:38:26.948Z,9.30
2023-04-30T01:41:09.197Z,9.29
2023-04-30T01:43:54.642Z,9.34
2023-04-30T01:46:30.757Z,9.30
2023-04-30T01:49:28.836Z,9.23
2023-04-30T01:52:32.135Z,9.16
2023-04-30T01:55:14.017Z,9.13
2023-04-30T01:57:48.487Z,9.07
2023-04-30T02:00:17.782Z,9.05
2023-04-30T02:02:44.315Z,8.99
2023-04-30T02:05:10.833Z,9.01
2023-04-30T02:07:40.685Z,9.04
2023-04-30T02:10:08.665Z,9.17
2023-04-30T02:12:35.586Z,9.16
2023-04-30T02:15:03.455Z,9.35
2023-04-30T02:17:29.925Z,9.30
2023-04-30T02:19:56.577Z,9.25
2023-04-30T02:22:23.109Z,9.30
2023-04-30T02:24:49.992Z,9.28
2023-04-30T02:27:16.426Z,9.16
2023-04-30T02:29:42.929Z,9.17
2023-04-30T02:32:09.419Z,9.12
2023-04-30T02:34:35.912Z,9.08
2023-04-30T02:37:03.292Z,9.10
2023-04-30T02:39:29.729Z,9.13
2023-04-30T02:41:56.193Z,9.12
2023-04-30T02:44:22.662Z,9.03
2023-04-30T02:46:49.136Z,9.09
2023-04-30T02:49:15.812Z,9.15
2023-04-30T02:51:42.439Z,9.19
2023-04-30T02:54:09.112Z,9.23
2023-04-30T02:56:35.651Z,9.29
2023-04-30T02:59:02.224Z,9.25
2023-04-30T03:01:28.835Z,9.20
2023-04-30T03:03:55.353Z,9.26
2023-04-30T03:06:21.919Z,9.21
2023-04-30T03:08:48.574Z,9.18
2023-04-30T03:11:15.041Z,9.27
2023-04-30T03:13:41.496Z,9.32
2023-04-30T03:16:08.160Z,9.24
2023-04-30T03:18:34.683Z,9.23
2023-04-30T03:21:01.541Z,9.29
2023-04-30T03:23:28.875Z,9.25
2023-04-30T03:25:55.373Z,9.24
2023-04-30T03:28:22.524Z,9.35
2023-04-30T03:30:48.965Z,9.31
2023-04-30T03:33:15.504Z,9.30
2023-04-30T03:35:42.183Z,9.30
2023-04-30T03:38:08.851Z,9.26
2023-04-30T03:40:35.457Z,9.27
2023-04-30T03:43:02.321Z,9.24
2023-04-30T03:45:29.038Z,9.13
2023-04-30T03:47:55.846Z,9.19
2023-04-30T03:50:22.603Z,9.21
2023-04-30T03:52:49.056Z,9.22
2023-04-30T03:55:16.586Z,9.24
2023-04-30T03:57:43.429Z,9.21
2023-04-30T04:00:11.019Z,9.25
2023-04-30T04:02:42.450Z,9.15
2023-04-30T04:05:11.073Z,9.22
2023-04-30T04:07:38.061Z,9.18
2023-04-30T04:10:04.862Z,9.13
2023-04-30T04:12:32.088Z,9.14
2023-04-30T04:14:58.535Z,9.14
2023-04-30T04:17:25.301Z,9.17
2023-04-30T04:19:52.104Z,9.22
2023-04-30T04:22:19.229Z,9.13
2023-04-30T04:24:47.978Z,9.17
2023-04-30T04:27:20.374Z,9.12
2023-04-30T04:29:47.897Z,9.07
2023-04-30T04:32:14.702Z,9.16
2023-04-30T04:34:43.611Z,9.12
2023-04-30T04:37:10.089Z,9.06
2023-04-30T04:39:37.308Z,9.12
2023-04-30T04:42:04.965Z,9.19
2023-04-30T04:44:32.343Z,9.14
2023-04-30T04:46:59.060Z,9.13
2023-04-30T04:49:25.685Z,9.25
2023-04-30T04:51:52.250Z,9.17
2023-04-30T04:54:18.825Z,9.20
2023-04-30T04:56:45.457Z,9.17
2023-04-30T04:59:12.266Z,9.21
2023-04-30T05:01:38.921Z,9.26
2023-04-30T05:04:05.578Z,9.22
2023-04-30T05:06:32.284Z,9.32
2023-04-30T05:08:59.568Z,9.47
2023-04-30T05:11:26.044Z,9.56
2023-04-30T05:13:52.481Z,9.48
2023-04-30T05:16:19.101Z,9.55
2023-04-30T05:18:45.608Z,9.81
2023-04-30T05:21:12.053Z,9.85
2023-04-30T05:23:38.539Z,9.67
2023-04-30T05:26:05.354Z,9.64
2023-04-30T05:28:31.836Z,9.58
2023-04-30T05:30:58.277Z,9.56
2023-04-30T05:33:24.797Z,9.52
2023-04-30T05:35:51.230Z,9.69
2023-04-30T05:38:17.762Z,9.67
2023-04-30T05:40:44.166Z,9.67
2023-04-30T05:43:10.704Z,9.82
2023-04-30T05:45:37.145Z,9.74
2023-04-30T05:48:04.173Z,10.01
2023-04-30T05:50:30.695Z,10.18
2023-04-30T05:52:57.173Z,10.29
2023-04-30T05:55:23.615Z,10.42
2023-04-30T05:57:50.099Z,10.56
2023-04-30T06:00:16.799Z,10.59
2023-04-30T06:02:43.443Z,10.49
2023-04-30T06:05:10.069Z,10.55
2023-04-30T06:07:36.542Z,10.53
2023-04-30T06:10:03.221Z,10.79
2023-04-30T06:12:29.850Z,10.84
2023-04-30T06:14:56.389Z,10.91
2023-04-30T06:17:22.875Z,11.42
2023-04-30T06:19:49.375Z,11.70
2023-04-30T06:22:15.786Z,11.99
2023-04-30T06:24:42.299Z,12.50
2023-04-30T06:27:08.950Z,13.11
2023-04-30T06:29:35.419Z,14.48
2023-04-30T06:32:01.897Z,12.94
2023-04-30T06:34:28.438Z,11.88
2023-04-30T06:36:54.876Z,12.20
2023-04-30T06:39:21.305Z,12.12
2023-04-30T06:41:47.991Z,13.60
2023-04-30T06:44:15.026Z,13.70
2023-04-30T06:46:41.508Z,13.74
2023-04-30T06:49:07.998Z,14.14
2023-04-30T06:51:34.434Z,14.98
2023-04-30T06:54:00.913Z,15.29
2023-04-30T06:56:27.393Z,16.55
2023-04-30T06:58:53.869Z,17.84
2023-04-30T07:01:20.507Z,18.13
2023-04-30T07:03:47.306Z,19.69
2023-04-30T07:06:14.323Z,19.22
2023-04-30T07:08:41.309Z,19.26
2023-04-30T07:11:07.975Z,20.40
2023-04-30T07:13:34.688Z,20.61
2023-04-30T07:16:01.219Z,19.56
2023-04-30T07:18:27.781Z,20.86
2023-04-30T07:20:54.994Z,20.31
2023-04-30T07:23:21.750Z,19.44
2023-04-30T07:25:48.518Z,20.39
2023-04-30T07:28:14.984Z,20.80
2023-04-30T07:30:41.648Z,18.03
2023-04-30T07:33:09.675Z,17.56
2023-04-30T07:35:36.543Z,17.67
2023-04-30T07:38:03.425Z,16.73
2023-04-30T07:43:01.225Z,18.02
2023-04-30T07:45:27.681Z,18.96
2023-04-30T07:47:54.208Z,18.41
2023-04-30T07:50:20.735Z,19.69
2023-04-30T07:52:49.405Z,18.89
2023-04-30T07:55:16.238Z,20.51
2023-04-30T07:57:42.675Z,20.08
2023-04-30T08:00:09.508Z,19.45
2023-04-30T08:02:44.075Z,17.86
2023-04-30T08:05:11.231Z,19.70
2023-04-30T08:07:37.799Z,19.05
2023-04-30T08:10:04.619Z,20.39
2023-04-30T08:12:31.286Z,20.33
2023-04-30T08:15:03.163Z,20.49
2023-04-30T08:17:29.734Z,19.78
2023-04-30T08:19:56.505Z,20.65
2023-04-30T08:22:23.553Z,20.50
2023-04-30T08:24:50.304Z,20.13
2023-04-30T08:27:16.814Z,20.26
2023-04-30T08:29:43.257Z,19.01
2023-04-30T08:32:09.944Z,18.52
2023-04-30T08:34:36.587Z,18.52
2023-04-30T08:37:03.095Z,18.50
2023-04-30T08:39:29.540Z,17.06
2023-04-30T08:41:56.747Z,17.11
2023-04-30T08:44:24.043Z,17.72
2023-04-30T08:46:54.746Z,18.37
2023-04-30T08:49:25.442Z,17.90
2023-04-30T08:51:52.814Z,17.45
2023-04-30T08:54:22.569Z,17.99
2023-04-30T08:56:52.178Z,17.98
2023-04-30T08:59:19.214Z,18.17
2023-04-30T09:01:45.901Z,17.88
2023-04-30T09:04:12.502Z,18.01
2023-04-30T09:06:39.039Z,18.43
2023-04-30T09:09:13.943Z,17.88
2023-04-30T09:11:40.883Z,18.44
2023-04-30T09:14:08.135Z,18.13
2023-04-30T09:16:49.253Z,17.85
2023-04-30T09:19:29.486Z,18.17
2023-04-30T09:21:56.500Z,17.29
2023-04-30T09:24:23.952Z,17.67
2023-04-30T09:26:51.415Z,16.92
2023-04-30T09:29:17.890Z,17.01
2023-04-30T09:31:47.097Z,17.04
2023-04-30T09:34:14.500Z,17.59
2023-04-30T09:36:57.036Z,17.65
2023-04-30T09:39:24.018Z,16.66
2023-04-30T09:41:51.567Z,15.87
2023-04-30T09:44:32.233Z,15.55
2023-04-30T09:46:59.290Z,15.52
2023-04-30T09:49:27.312Z,15.11
2023-04-30T09:51:58.475Z,15.30
2023-04-30T09:54:32.223Z,15.17
2023-04-30T09:57:01.535Z,14.92
2023-04-30T09:59:39.715Z,14.94
2023-04-30T10:02:08.254Z,14.67
2023-04-30T10:04:39.565Z,14.75
2023-04-30T10:07:10.409Z,14.73
2023-04-30T10:09:44.712Z,14.84
2023-04-30T10:12:16.167Z,14.80
2023-04-30T10:14:51.944Z,14.61
2023-04-30T10:17:20.739Z,14.53
2023-04-30T10:19:50.814Z,14.66
2023-04-30T10:22:20.477Z,14.50
2023-04-30T10:24:48.514Z,14.70
2023-04-30T10:27:15.163Z,14.54
2023-04-30T10:29:42.715Z,14.68
2023-04-30T10:32:13.008Z,15.01
2023-04-30T10:34:57.467Z,14.95
2023-04-30T10:37:26.837Z,15.07
2023-04-30T10:39:53.957Z,15.15
2023-04-30T10:42:20.670Z,15.27
2023-04-30T10:44:47.423Z,15.19
2023-04-30T10:47:13.944Z,15.63
2023-04-30T10:49:48.088Z,16.03
2023-04-30T10:52:14.574Z,16.03
2023-04-30T10:54:49.913Z,15.43
2023-04-30T10:57:20.249Z,15.99
2023-04-30T11:00:14.978Z,16.44
2023-04-30T11:02:43.822Z,16.76
2023-04-30T11:05:11.945Z,16.47
2023-04-30T11:07:56.526Z,16.75
2023-04-30T11:10:32.036Z,16.75
2023-04-30T11:13:03.243Z,17.18
2023-04-30T11:15:45.098Z,16.19
2023-04-30T11:18:13.786Z,15.80
2023-04-30T11:20:42.089Z,15.76
2023-04-30T11:23:11.185Z,15.80
2023-04-30T11:25:43.023Z,15.67
2023-04-30T11:28:24.054Z,16.14
2023-04-30T11:30:58.044Z,16.34
2023-04-30T11:33:29.798Z,16.48
2023-04-30T11:35:57.648Z,16.81
2023-04-30T11:38:33.830Z,16.53
2023-04-30T11:41:01.470Z,15.94
2023-04-30T11:43:31.234Z,15.97
2023-04-30T11:46:05.794Z,16.01
2023-04-30T11:48:34.214Z,15.95
2023-04-30T11:51:04.397Z,16.06
2023-04-30T11:53:31.069Z,16.26
2023-04-30T11:55:57.521Z,16.70
2023-04-30T11:58:23.934Z,16.27
2023-04-30T12:00:52.370Z,15.58
2023-04-30T12:03:19.146Z,15.99
2023-04-30T12:05:46.567Z,18.49
2023-04-30T12:08:13.155Z,19.19
2023-04-30T12:10:40.760Z,19.93
2023-04-30T12:13:07.238Z,19.50
2023-04-30T12:15:34.301Z,20.40
2023-04-30T12:18:12.111Z,20.46
2023-04-30T12:20:40.090Z,19.37
2023-04-30T12:23:08.017Z,17.77
2023-04-30T12:25:42.430Z,19.26
2023-04-30T12:28:10.168Z,18.58
2023-04-30T12:30:36.759Z,17.79
2023-04-30T12:33:03.679Z,17.24
2023-04-30T12:35:32.449Z,16.77
2023-04-30T12:38:04.389Z,16.89
2023-04-30T12:40:30.917Z,16.70
2023-04-30T12:43:02.832Z,17.19
2023-04-30T12:45:52.491Z,16.88
2023-04-30T12:48:24.254Z,17.86
2023-04-30T12:51:01.678Z,18.38
2023-04-30T12:53:29.547Z,18.59
2023-04-30T12:56:15.539Z,19.11
2023-04-30T12:58:49.497Z,18.12
2023-04-30T13:01:24.478Z,18.10
2023-04-30T13:03:52.778Z,17.34
2023-04-30T13:06:21.476Z,17.64
2023-04-30T13:08:58.106Z,17.37
2023-04-30T13:11:26.748Z,18.10
2023-04-30T13:13:55.465Z,18.95
2023-04-30T13:16:22.999Z,18.81
2023-04-30T13:18:49.507Z,18.46
2023-04-30T13:21:15.919Z,18.93
2023-04-30T13:23:51.805Z,19.06
2023-04-30T13:26:20.472Z,19.84
2023-04-30T13:28:47.102Z,19.62
2023-04-30T13:31:13.561Z,20.00
2023-04-30T13:33:40.066Z,19.06
2023-04-30T13:36:06.796Z,18.58
2023-04-30T13:38:33.585Z,18.13
2023-04-30T13:41:00.000Z,18.70
2023-04-30T13:43:26.519Z,18.80
2023-04-30T13:45:53.059Z,18.32
2023-04-30T13:48:19.550Z,18.03
2023-04-30T13:50:46.010Z,18.52
2023-04-30T13:53:12.599Z,18.74
2023-04-30T13:55:39.023Z,18.61
2023-04-30T13:58:05.538Z,17.95
2023-04-30T14:00:32.029Z,17.02
2023-04-30T14:02:58.715Z,17.41
2023-04-30T14:05:25.348Z,17.58
2023-04-30T14:07:51.854Z,17.82
2023-04-30T14:10:18.385Z,17.84
2023-04-30T14:12:44.891Z,17.99
2023-04-30T14:15:11.448Z,18.39
2023-04-30T14:17:38.585Z,18.37
2023-04-30T14:20:05.865Z,18.02
2023-04-30T14:22:34.533Z,18.00
2023-04-30T14:25:01.163Z,17.36
2023-04-30T14:27:27.606Z,17.10
2023-04-30T14:29:54.438Z,17.29
2023-04-30T14:32:21.200Z,17.29
2023-04-30T14:34:47.805Z,17.22
2023-04-30T14:37:15.488Z,17.40
2023-04-30T14:39:42.033Z,17.62
2023-04-30T14:42:08.851Z,17.34
2023-04-30T14:44:35.803Z,17.33
2023-04-30T14:47:03.104Z,17.53
2023-04-30T14:49:29.677Z,17.43
2023-04-30T14:51:56.170Z,17.55
2023-04-30T14:54:22.929Z,17.38
2023-04-30T14:56:49.830Z,17.28
2023-04-30T14:59:16.304Z,17.73
2023-04-30T15:01:42.772Z,17.68
2023-04-30T15:04:09.492Z,17.52
2023-04-30T15:06:36.167Z,17.67
2023-04-30T15:09:04.260Z,17.87
2023-04-30T15:11:30.820Z,17.98
2023-04-30T15:13:57.290Z,17.78
2023-04-30T15:16:24.199Z,17.68
2023-04-30T15:18:50.852Z,17.62
2023-04-30T15:21:17.309Z,17.39
2023-04-30T15:23:44.190Z,17.13
2023-04-30T15:26:11.054Z,16.98
2023-04-30T15:28:37.717Z,17.05
2023-04-30T15:31:06.535Z,17.05
2023-04-30T15:33:34.482Z,17.00
2023-04-30T15:36:01.437Z,17.24
2023-04-30T15:38:27.939Z,17.08
2023-04-30T15:40:54.371Z,16.66
2023-04-30T15:43:21.386Z,16.32
2023-04-30T15:45:48.387Z,16.24
2023-04-30T15:48:15.002Z,16.28
2023-04-30T15:50:41.437Z,16.51
2023-04-30T15:53:07.912Z,16.69
2023-04-30T15:55:34.352Z,16.54
2023-04-30T15:58:01.003Z,16.64
2023-04-30T16:00:29.190Z,16.55
2023-04-30T16:02:55.846Z,16.73
2023-04-30T16:05:22.443Z,16.70
2023-04-30T16:07:49.557Z,16.68
2023-04-30T16:10:16.306Z,16.59
2023-04-30T16:12:42.809Z,16.39
2023-04-30T16:15:10.737Z,16.52
2023-04-30T16:17:37.301Z,16.62
2023-04-30T16:20:04.127Z,16.62
2023-04-30T16:22:30.686Z,16.54
2023-04-30T16:24:57.338Z,16.65
2023-04-30T16:27:24.152Z,16.65
2023-04-30T16:29:50.719Z,16.55
2023-04-30T16:32:17.625Z,16.25
2023-04-30T16:34:44.066Z,16.33
2023-04-30T16:37:10.647Z,16.30
2023-04-30T16:39:37.143Z,16.31
2023-04-30T16:42:03.591Z,16.35
2023-04-30T16:44:30.147Z,16.05
2023-04-30T16:46:59.386Z,16.26
2023-04-30T16:49:25.923Z,16.18
2023-04-30T16:51:52.391Z,16.06
2023-04-30T16:54:18.831Z,16.20
2023-04-30T16:56:45.398Z,16.47
2023-04-30T16:59:11.913Z,16.31
2023-04-30T17:01:38.473Z,15.96
2023-04-30T17:04:05.079Z,16.33
2023-04-30T17:06:33.340Z,16.26
2023-04-30T17:08:59.912Z,16.25
2023-04-30T17:11:26.696Z,16.40
2023-04-30T17:13:55.083Z,16.24
2023-04-30T17:16:22.055Z,16.18
2023-04-30T17:18:49.077Z,16.41
2023-04-30T17:21:15.925Z,16.24
2023-04-30T17:23:42.680Z,16.19
2023-04-30T17:26:09.583Z,16.03
2023-04-30T17:28:37.328Z,15.78
2023-04-30T17:31:06.760Z,15.80
2023-04-30T17:33:33.675Z,15.56
2023-04-30T17:36:00.127Z,15.23
2023-04-30T17:38:26.903Z,15.07
2023-04-30T17:40:54.178Z,14.96
2023-04-30T17:43:20.710Z,14.92
2023-04-30T17:45:47.274Z,14.86
2023-04-30T17:48:13.908Z,14.71
2023-04-30T17:50:41.135Z,14.58
2023-04-30T17:53:07.578Z,14.60
2023-04-30T17:55:34.030Z,14.59
2023-04-30T17:58:00.471Z,14.41
2023-04-30T18:00:26.971Z,14.33
2023-04-30T18:02:53.427Z,14.35
2023-04-30T18:05:20.167Z,14.18
2023-04-30T18:07:47.585Z,14.09
2023-04-30T18:10:14.188Z,13.94
2023-04-30T18:12:41.912Z,13.82
2023-04-30T18:15:08.855Z,13.50
2023-04-30T18:17:37.219Z,13.37
2023-04-30T18:20:04.679Z,13.36
2023-04-30T18:22:31.945Z,13.31
2023-04-30T18:24:58.454Z,13.05
2023-04-30T18:27:25.011Z,12.69
2023-04-30T18:29:52.540Z,12.52
2023-04-30T18:32:19.327Z,12.42
2023-04-30T18:34:46.163Z,12.50
2023-04-30T18:37:12.623Z,12.53
2023-04-30T18:39:39.062Z,12.53
2023-04-30T18:42:05.503Z,12.35
2023-04-30T18:44:32.141Z,12.19
2023-04-30T18:46:58.891Z,12.06
2023-04-30T18:49:25.322Z,12.01
2023-04-30T18:51:51.817Z,11.76
2023-04-30T18:54:18.423Z,11.54
2023-04-30T18:56:45.191Z,11.45
2023-04-30T18:59:11.642Z,11.53
2023-04-30T19:01:38.317Z,11.34
2023-04-30T19:04:04.823Z,11.18
2023-04-30T19:06:33.353Z,10.96
2023-04-30T19:09:00.010Z,10.84
2023-04-30T19:11:27.049Z,10.95
2023-04-30T19:13:53.712Z,11.05
2023-04-30T19:16:20.174Z,11.33
2023-04-30T19:18:46.765Z,11.38
2023-04-30T19:21:14.761Z,11.36
2023-04-30T19:23:41.311Z,11.36
2023-04-30T19:26:07.766Z,11.31
2023-04-30T19:28:34.169Z,11.35
2023-04-30T19:31:00.680Z,11.31
2023-04-30T19:33:28.254Z,11.26
2023-04-30T19:35:54.992Z,11.26
2023-04-30T19:38:21.753Z,11.14
2023-04-30T19:40:53.130Z,11.02
2023-04-30T19:43:20.407Z,10.97
2023-04-30T19:45:50.353Z,10.88
2023-04-30T19:48:17.233Z,10.83
2023-04-30T19:50:47.445Z,10.84
2023-04-30T19:53:16.235Z,10.76
2023-04-30T19:55:43.798Z,10.74
2023-04-30T19:58:10.400Z,10.44
2023-04-30T20:00:41.362Z,9.96
2023-04-30T20:03:08.106Z,10.16
2023-04-30T20:05:39.522Z,10.26
2023-04-30T20:08:07.507Z,10.37
2023-04-30T20:10:36.182Z,10.37
2023-04-30T20:13:03.750Z,10.41
2023-04-30T20:15:30.631Z,10.29
2023-04-30T20:17:58.281Z,10.29
2023-04-30T20:20:25.107Z,10.23
2023-04-30T20:22:54.037Z,10.14
2023-04-30T20:25:22.271Z,10.13
2023-04-30T20:27:49.221Z,10.14
2023-04-30T20:30:16.231Z,9.83
2023-04-30T20:32:42.962Z,9.65
2023-04-30T20:35:09.656Z,9.65
2023-04-30T20:37:37.209Z,9.74
2023-04-30T20:40:04.359Z,9.92
2023-04-30T20:42:30.870Z,9.96
2023-04-30T20:44:57.369Z,9.65
2023-04-30T20:47:23.923Z,9.78
2023-04-30T20:49:51.073Z,9.76
2023-04-30T20:52:18.640Z,9.78
2023-04-30T20:54:45.863Z,9.85
2023-04-30T20:57:12.515Z,9.87
2023-04-30T20:59:38.998Z,9.49
2023-04-30T21:02:05.744Z,9.18
2023-04-30T21:04:32.281Z,8.98
2023-04-30T21:06:58.787Z,9.10
2023-04-30T21:09:25.261Z,9.23
2023-04-30T21:11:51.822Z,9.32
2023-04-30T21:14:18.803Z,9.30
2023-04-30T21:16:45.374Z,8.92
2023-04-30T21:19:11.928Z,8.68
2023-04-30T21:21:38.395Z,8.58
2023-04-30T21:24:05.350Z,8.61
2023-04-30T21:26:32.048Z,8.63
2023-04-30T21:28:58.818Z,8.82
2023-04-30T21:31:25.744Z,8.75
2023-04-30T21:33:52.320Z,8.85
2023-04-30T21:36:18.952Z,8.98
2023-04-30T21:38:45.392Z,9.10
2023-04-30T21:41:16.821Z,9.01
2023-04-30T21:43:43.932Z,8.74
2023-04-30T21:46:10.866Z,8.97
2023-04-30T21:48:40.567Z,8.62
2023-04-30T21:51:17.081Z,8.41
2023-04-30T21:53:45.410Z,8.40
2023-04-30T21:56:12.395Z,8.38
2023-04-30T21:58:39.371Z,8.29
2023-04-30T22:01:05.919Z,8.26
2023-04-30T22:03:33.045Z,8.20
2023-04-30T22:05:59.703Z,8.33
2023-04-30T22:08:26.479Z,8.52
2023-04-30T22:10:58.791Z,8.43
2023-04-30T22:13:26.271Z,8.33
2023-04-30T22:15:52.858Z,8.28
2023-04-30T22:18:20.260Z,8.24
2023-04-30T22:20:49.025Z,8.24
2023-04-30T22:23:16.644Z,8.37
2023-04-30T22:25:43.319Z,8.59
2023-04-30T22:28:10.186Z,8.50
2023-04-30T22:30:37.620Z,8.42
2023-04-30T22:33:04.380Z,8.37
2023-04-30T22:35:32.699Z,8.36
2023-04-30T22:38:00.466Z,8.41
2023-04-30T22:40:27.229Z,8.31
2023-04-30T22:42:54.072Z,8.29
2023-04-30T22:45:20.674Z,8.27
2023-04-30T22:47:47.496Z,8.27
2023-04-30T22:50:13.937Z,8.28
2023-04-30T22:52:40.435Z,8.02
2023-04-30T22:55:07.658Z,8.05
2023-04-30T22:57:34.128Z,8.09
2023-04-30T23:00:00.848Z,8.00
2023-04-30T23:02:28.652Z,7.97
2023-04-30T23:04:55.271Z,7.94
2023-04-30T23:07:21.818Z,8.03
2023-04-30T23:09:48.334Z,8.09
2023-04-30T23:12:14.784Z,7.85
2023-04-30T23:14:41.341Z,7.91
2023-04-30T23:17:07.843Z,7.75
2023-04-30T23:19:34.362Z,7.93
2023-04-30T23:22:00.910Z,7.86
2023-04-30T23:24:27.327Z,7.63
2023-04-30T23:26:55.205Z,7.73
2023-04-30T23:29:21.649Z,7.57
2023-04-30T23:31:48.197Z,7.49
2023-04-30T23:34:14.648Z,7.56
2023-04-30T23:36:41.159Z,7.46
2023-04-30T23:39:07.945Z,7.36
2023-04-30T23:41:34.394Z,7.42
2023-04-30T23:44:00.859Z,7.34
2023-04-30T23:46:27.459Z,7.32
2023-04-30T23:48:54.034Z,7.31
2023-04-30T23:51:22.423Z,7.25
2023-04-30T23:53:48.998Z,7.25
2023-04-30T23:56:15.434Z,7.40
2023-04-30T23:58:41.984Z,7.47
